Time;durP1;ratioP1;P1;durP2;ratioP2;P2;SDS_P1;SDS_P2;PMS_P1;PMS_P2;Temp;Humidity;BMP_temperature;BMP_pressure;BME280_temperature;BME280_humidity;BME280_pressure;Samples;Min_cycle;Max_cycle;Signal;HPM_P1;HPM_P2
2022/01/02 00:00:14;;;;;;;38.78;5.82;;;;;;;6.46;100.00;97017.78;5025258;28;20327;-71
2022/01/02 00:02:42;;;;;;;91.07;7.38;;;;;;;6.41;100.00;96999.84;5040783;28;20041;-70
2022/01/02 00:05:10;;;;;;;67.22;7.65;;;;;;;6.41;100.00;96987.34;5041320;28;20029;-70
2022/01/02 00:07:42;;;;;;;50.35;6.72;;;;;;;6.42;100.00;96983.66;5041627;28;20044;-71
2022/01/02 00:10:08;;;;;;;128.52;9.73;;;;;;;6.40;100.00;96980.41;5040814;28;20032;-71
2022/01/02 00:12:36;;;;;;;165.40;9.30;;;;;;;6.45;100.00;96971.78;5043766;28;20460;-71
2022/01/02 00:15:05;;;;;;;202.02;13.10;;;;;;;6.44;100.00;96978.13;5042287;28;20121;-70
2022/01/02 00:17:31;;;;;;;106.60;9.40;;;;;;;6.49;100.00;96973.00;5044867;28;20036;-71
2022/01/02 00:20:01;;;;;;;174.18;12.10;;;;;;;6.53;100.00;96976.06;5044209;28;20048;-71
2022/01/02 00:22:35;;;;;;;76.45;7.78;;;;;;;6.52;100.00;96966.44;5042442;28;20460;-71
2022/01/02 00:25:09;;;;;;;103.00;8.63;;;;;;;6.49;100.00;96982.84;5042799;28;20116;-71
2022/01/02 00:27:35;;;;;;;101.57;9.57;;;;;;;6.50;100.00;96984.47;5045652;28;20387;-72
2022/01/02 00:30:05;;;;;;;194.77;12.27;;;;;;;6.56;100.00;96978.31;5031124;28;20021;-71
2022/01/02 00:32:37;;;;;;;190.77;10.27;;;;;;;6.53;100.00;96970.75;5045225;28;20144;-71
2022/01/02 00:35:04;;;;;;;81.68;8.73;;;;;;;6.54;100.00;96964.41;5045437;28;20044;-71
2022/01/02 00:37:29;;;;;;;296.55;12.63;;;;;;;6.58;100.00;96968.28;5045936;28;20407;-72
2022/01/02 00:39:55;;;;;;;163.23;9.27;;;;;;;6.59;100.00;96970.72;5044727;28;20079;-70
2022/01/02 00:42:41;;;;;;;210.23;10.98;;;;;;;6.63;100.00;96966.63;5045883;28;20044;-71
2022/01/02 00:45:12;;;;;;;318.02;12.15;;;;;;;6.61;100.00;96952.69;5044750;28;20041;-71
2022/01/02 00:47:50;;;;;;;173.48;11.55;;;;;;;6.66;100.00;96944.09;5045203;28;20318;-70
2022/01/02 00:50:20;;;;;;;171.45;8.90;;;;;;;6.67;100.00;96946.53;5044671;28;20168;-71
2022/01/02 00:52:48;;;;;;;202.10;10.77;;;;;;;6.66;100.00;96944.91;5045826;28;20464;-71
2022/01/02 00:55:21;;;;;;;126.60;7.88;;;;;;;6.68;100.00;96926.09;5042184;28;20028;-70
2022/01/02 00:57:59;;;;;;;123.03;7.72;;;;;;;6.55;100.00;96908.38;5044905;28;20037;-71
2022/01/02 01:00:28;;;;;;;129.98;7.50;;;;;;;6.49;100.00;96903.06;5044184;28;20135;-72
2022/01/02 01:02:55;;;;;;;141.85;8.45;;;;;;;6.42;100.00;96906.56;5044921;28;20041;-71
2022/01/02 01:05:28;;;;;;;276.60;11.68;;;;;;;6.45;100.00;96913.28;5044279;28;20337;-70
2022/01/02 01:07:59;;;;;;;268.25;11.15;;;;;;;6.51;100.00;96908.97;5043369;28;20037;-71
2022/01/02 01:10:28;;;;;;;180.17;8.87;;;;;;;6.47;100.00;96900.63;5046703;28;20037;-71
2022/01/02 01:12:59;;;;;;;114.97;7.75;;;;;;;6.39;100.00;96904.34;5042588;28;20528;-71
2022/01/02 01:15:28;;;;;;;113.18;9.60;;;;;;;6.37;100.00;96902.91;5027022;28;20055;-71
2022/01/02 01:17:56;;;;;;;133.73;9.35;;;;;;;6.35;100.00;96902.31;5035490;28;20485;-72
2022/01/02 01:20:24;;;;;;;103.28;7.97;;;;;;;6.32;100.00;96908.88;5045334;28;20029;-71
2022/01/02 01:22:50;;;;;;;108.45;8.05;;;;;;;6.39;100.00;96904.34;5027502;28;20041;-71
2022/01/02 01:25:19;;;;;;;116.15;8.20;;;;;;;6.42;100.00;96914.53;5027121;28;20045;-73
2022/01/02 01:27:47;;;;;;;66.40;7.25;;;;;;;6.43;100.00;96905.53;5042253;28;20061;-71
2022/01/02 01:30:13;;;;;;;135.20;8.52;;;;;;;6.39;100.00;96909.66;5044182;28;20131;-72
2022/01/02 01:32:39;;;;;;;129.30;8.88;;;;;;;6.37;100.00;96908.22;5043489;28;20423;-71
2022/01/02 01:35:07;;;;;;;180.98;10.18;;;;;;;6.31;100.00;96909.91;5043130;28;20045;-71
2022/01/02 01:37:33;;;;;;;233.25;10.65;;;;;;;6.34;100.00;96912.13;5023197;28;20546;-70
2022/01/02 01:39:58;;;;;;;356.05;14.57;;;;;;;6.29;100.00;96917.25;5042269;28;20036;-71
2022/01/02 01:42:35;;;;;;;243.07;11.98;;;;;;;6.32;100.00;96906.22;5027799;28;20090;-71
2022/01/02 01:47:34;;;;;;;283.13;13.88;;;;;;;6.45;100.00;96939.06;5043016;28;20033;-70
2022/01/02 01:49:59;;;;;;;176.55;11.05;;;;;;;6.51;100.00;96948.88;5041619;28;20314;-71
2022/01/02 01:52:28;;;;;;;125.38;9.57;;;;;;;6.58;100.00;96939.03;5040990;28;20316;-72
2022/01/02 01:54:54;;;;;;;182.00;10.15;;;;;;;6.43;100.00;96942.75;5028298;28;20036;-72
2022/01/02 01:57:20;;;;;;;165.23;9.90;;;;;;;6.49;100.00;96950.94;5029224;28;20037;-70
2022/01/02 01:59:48;;;;;;;103.13;8.20;;;;;;;6.39;100.00;96948.72;5025639;28;20064;-70
2022/01/02 02:02:15;;;;;;;146.90;9.18;;;;;;;6.33;100.00;96937.06;5040809;28;20045;-70
2022/01/02 02:04:42;;;;;;;77.47;7.53;;;;;;;6.35;100.00;96931.53;5042517;28;20033;-71
2022/01/02 02:07:07;;;;;;;39.65;8.07;;;;;;;6.25;100.00;96929.34;5023817;28;20064;-71
2022/01/02 02:09:52;;;;;;;14.43;6.00;;;;;;;6.11;100.00;96925.91;5041581;28;20425;-70
2022/01/02 02:12:18;;;;;;;15.80;6.93;;;;;;;6.07;100.00;96919.38;5036596;28;20526;-70
2022/01/02 02:14:45;;;;;;;18.42;7.00;;;;;;;6.03;100.00;96920.00;5025822;28;20044;-70
2022/01/02 02:17:12;;;;;;;17.50;7.03;;;;;;;6.00;100.00;96920.44;5045781;28;20044;-70
2022/01/02 02:19:38;;;;;;;17.45;6.70;;;;;;;6.04;100.00;96913.66;5044275;28;20041;-71
2022/01/02 02:22:06;;;;;;;18.88;6.28;;;;;;;6.09;100.00;96908.53;5040489;28;20162;-73
2022/01/02 02:24:31;;;;;;;19.98;7.90;;;;;;;6.11;100.00;96911.78;5043074;28;20033;-70
2022/01/02 02:26:57;;;;;;;22.65;6.45;;;;;;;6.07;100.00;96900.78;5044610;28;20048;-72
2022/01/02 02:29:22;;;;;;;22.83;7.00;;;;;;;5.99;100.00;96905.47;5026082;28;20070;-70
2022/01/02 02:31:50;;;;;;;14.07;6.65;;;;;;;5.94;100.00;96900.00;5043070;28;20063;-72
2022/01/02 02:34:17;;;;;;;15.55;6.15;;;;;;;5.98;100.00;96901.19;5030461;28;20498;-71
2022/01/02 02:36:45;;;;;;;16.15;6.70;;;;;;;6.04;100.00;96890.56;5030826;28;20116;-71
2022/01/02 02:39:10;;;;;;;14.98;6.93;;;;;;;6.11;100.00;96896.66;5042827;28;20201;-72
2022/01/02 02:41:38;;;;;;;13.95;5.78;;;;;;;6.05;100.00;96886.06;5041520;28;20049;-71
2022/01/02 02:44:15;;;;;;;13.75;5.90;;;;;;;6.10;100.00;96883.59;5042093;28;20095;-73
2022/01/02 02:49:24;;;;;;;14.98;5.40;;;;;;;6.26;100.00;96880.47;5042013;28;20037;-71
2022/01/02 02:52:02;;;;;;;13.40;6.15;;;;;;;6.21;100.00;96876.81;5025831;28;20037;-71
2022/01/02 02:54:32;;;;;;;;;;;;;;;6.29;100.00;96860.63;5019028;28;20467;-70
2022/01/02 02:57:00;;;;;;;11.88;5.30;;;;;;;6.37;100.00;96863.03;5040648;28;20358;-70
2022/01/02 02:59:31;;;;;;;11.70;5.88;;;;;;;6.37;100.00;96858.53;5025180;28;20033;-71
2022/01/02 03:01:58;;;;;;;13.18;5.00;;;;;;;6.37;100.00;96858.53;5015856;28;20102;-71
2022/01/02 03:04:26;;;;;;;5.63;3.17;;;;;;;6.43;100.00;96830.28;5043871;28;20338;-72
2022/01/02 03:06:52;;;;;;;6.75;3.72;;;;;;;6.57;100.00;96831.03;5042429;28;20324;-70
2022/01/02 03:09:36;;;;;;;9.30;3.83;;;;;;;6.64;100.00;96826.50;5026169;28;20045;-72
2022/01/02 03:12:02;;;;;;;14.73;5.03;;;;;;;6.66;100.00;96805.81;5040777;28;20468;-72
2022/01/02 03:14:30;;;;;;;8.15;3.80;;;;;;;6.62;100.00;96833.88;5033482;28;20033;-71
2022/01/02 03:16:56;;;;;;;6.90;3.20;;;;;;;6.56;100.00;96827.56;5025419;28;20975;-70
2022/01/02 03:19:21;;;;;;;9.45;4.60;;;;;;;6.53;100.00;96825.31;5024304;28;20103;-71
2022/01/02 03:21:49;;;;;;;10.25;4.43;;;;;;;6.48;100.00;96817.19;5024945;28;20123;-70
2022/01/02 03:24:15;;;;;;;8.68;4.20;;;;;;;6.49;100.00;96821.47;5040969;28;20028;-71
2022/01/02 03:26:40;;;;;;;9.32;4.60;;;;;;;6.50;100.00;96830.25;5042348;28;20037;-70
2022/01/02 03:29:06;;;;;;;11.68;4.80;;;;;;;6.48;100.00;96816.38;5042465;28;20422;-71
2022/01/02 03:31:31;;;;;;;10.02;4.82;;;;;;;6.45;100.00;96822.91;5042266;28;20396;-70
2022/01/02 03:33:58;;;;;;;11.98;5.00;;;;;;;6.38;100.00;96827.44;5024624;28;20523;-72
2022/01/02 03:36:24;;;;;;;11.57;4.90;;;;;;;6.27;100.00;96820.97;5040385;28;20033;-71
2022/01/02 03:38:49;;;;;;;10.95;4.25;;;;;;;6.19;100.00;96815.91;5024787;28;20041;-71
2022/01/02 03:41:15;;;;;;;10.85;5.18;;;;;;;6.23;100.00;96808.34;5023788;28;20059;-71
2022/01/02 03:43:41;;;;;;;9.63;4.65;;;;;;;6.30;100.00;96803.78;5032614;28;20037;-72
2022/01/02 03:46:07;;;;;;;12.57;5.10;;;;;;;6.32;100.00;96818.50;5042001;28;20029;-72
2022/01/02 03:48:34;;;;;;;11.88;4.97;;;;;;;6.29;100.00;96810.13;5031817;28;20033;-70
2022/01/02 03:50:59;;;;;;;10.40;5.00;;;;;;;6.29;100.00;96812.78;5041954;28;20041;-71
2022/01/02 03:53:26;;;;;;;11.77;5.05;;;;;;;6.31;100.00;96813.41;5029642;28;20029;-72
2022/01/02 03:55:52;;;;;;;11.63;4.53;;;;;;;6.28;100.00;96801.34;5041995;28;20641;-70
2022/01/02 03:58:21;;;;;;;15.63;5.72;;;;;;;6.26;100.00;96803.41;5027559;28;20118;-71
2022/01/02 04:00:47;;;;;;;12.35;5.32;;;;;;;6.14;100.00;96794.44;5039568;28;20467;-71
2022/01/02 04:03:13;;;;;;;10.02;5.30;;;;;;;6.01;100.00;96799.84;5032447;28;20293;-71
2022/01/02 04:05:38;;;;;;;11.48;5.47;;;;;;;6.05;100.00;96795.72;5028209;28;20045;-70
2022/01/02 04:08:05;;;;;;;11.25;5.40;;;;;;;6.13;100.00;96784.84;5047105;28;20062;-70
2022/01/02 04:10:31;;;;;;;14.10;5.72;;;;;;;6.14;100.00;96797.09;5042913;28;20069;-72
2022/01/02 04:12:57;;;;;;;11.60;5.95;;;;;;;6.08;100.00;96796.13;5045726;28;20112;-72
2022/01/02 04:15:22;;;;;;;12.38;5.82;;;;;;;6.00;100.00;96784.94;5027906;28;20806;-71
2022/01/02 04:17:48;;;;;;;14.35;6.00;;;;;;;6.02;100.00;96781.03;5028125;28;20091;-71
2022/01/02 04:20:15;;;;;;;12.10;5.28;;;;;;;6.08;100.00;96788.16;5045452;28;20534;-71
2022/01/02 04:22:43;;;;;;;14.80;6.00;;;;;;;6.10;100.00;96783.44;5043626;28;20095;-72
2022/01/02 04:25:09;;;;;;;12.07;6.13;;;;;;;6.10;100.00;96772.81;5043914;28;20119;-70
2022/01/02 04:27:35;;;;;;;13.45;6.50;;;;;;;6.11;100.00;96771.78;5044112;28;20035;-70
2022/01/02 04:30:02;;;;;;;12.43;6.63;;;;;;;6.16;100.00;96762.38;5047127;28;20033;-71
2022/01/02 04:32:29;;;;;;;16.77;7.07;;;;;;;6.18;100.00;96741.72;5020173;28;20059;-71
2022/01/02 04:34:54;;;;;;;18.73;7.50;;;;;;;6.23;100.00;96740.06;5028264;28;20542;-71
2022/01/02 04:37:21;;;;;;;20.02;7.97;;;;;;;6.27;100.00;96740.41;5043385;28;20025;-71
2022/01/02 04:39:46;;;;;;;16.20;6.32;;;;;;;6.25;100.00;96735.31;5043601;28;20037;-71
2022/01/02 04:42:12;;;;;;;15.15;6.57;;;;;;;6.23;100.00;96732.06;5044748;28;20561;-71
2022/01/02 04:44:38;;;;;;;17.20;7.05;;;;;;;6.22;100.00;96725.09;5045149;28;20047;-71
2022/01/02 04:47:04;;;;;;;15.77;7.68;;;;;;;6.28;100.00;96720.78;5045356;28;20037;-71
2022/01/02 04:49:31;;;;;;;17.83;7.28;;;;;;;6.27;100.00;96730.59;5029178;28;20099;-71
2022/01/02 04:51:56;;;;;;;13.48;6.28;;;;;;;6.32;100.00;96736.09;5018932;28;20545;-70
2022/01/02 04:54:22;;;;;;;17.95;7.13;;;;;;;6.35;100.00;96740.16;5027623;28;20103;-72
2022/01/02 04:56:49;;;;;;;17.77;6.80;;;;;;;6.31;100.00;96731.00;5038436;28;20041;-71
2022/01/02 04:59:14;;;;;;;12.80;7.20;;;;;;;6.16;100.00;96733.16;5044199;28;20031;-70
2022/01/02 05:01:41;;;;;;;17.40;6.95;;;;;;;6.11;100.00;96741.75;5027126;28;20044;-71
2022/01/02 05:04:06;;;;;;;16.23;6.85;;;;;;;6.17;100.00;96743.56;5042917;28;20032;-72
2022/01/02 05:06:32;;;;;;;16.35;7.18;;;;;;;6.29;100.00;96754.31;5046802;28;20037;-70
2022/01/02 05:08:58;;;;;;;16.45;7.57;;;;;;;6.37;100.00;96754.84;5027328;28;20044;-70
2022/01/02 05:11:24;;;;;;;17.95;7.40;;;;;;;6.38;100.00;96758.34;5027156;28;20044;-70
2022/01/02 05:13:49;;;;;;;16.35;7.78;;;;;;;6.38;100.00;96753.84;5043800;28;20075;-71
2022/01/02 05:16:17;;;;;;;15.27;6.70;;;;;;;6.26;100.00;96752.91;5027584;28;20033;-71
2022/01/02 05:18:42;;;;;;;17.58;7.35;;;;;;;6.15;100.00;96753.59;5044510;28;20466;-71
2022/01/02 05:21:09;;;;;;;15.68;7.40;;;;;;;6.12;100.00;96759.31;5027910;28;20029;-70
2022/01/02 05:23:35;;;;;;;16.95;7.60;;;;;;;6.14;100.00;96741.31;5030507;28;20817;-71
2022/01/02 05:26:00;;;;;;;21.10;8.85;;;;;;;6.20;100.00;96737.00;5041729;28;20127;-70
2022/01/02 05:28:27;;;;;;;19.83;9.05;;;;;;;6.25;100.00;96740.66;5044660;28;20056;-71
2022/01/02 05:30:53;;;;;;;24.98;8.63;;;;;;;6.20;100.00;96739.66;5025478;28;20056;-71
2022/01/02 05:33:19;;;;;;;35.33;9.48;;;;;;;6.17;100.00;96745.41;5042926;28;20041;-70
2022/01/02 05:35:44;;;;;;;20.50;8.15;;;;;;;6.12;100.00;96733.56;5043127;28;20488;-70
2022/01/02 05:38:10;;;;;;;35.58;8.73;;;;;;;6.10;100.00;96722.34;5026229;28;20463;-70
2022/01/02 05:40:36;;;;;;;21.10;8.27;;;;;;;6.14;100.00;96722.72;5043807;28;20140;-70
2022/01/02 05:43:04;;;;;;;20.15;7.90;;;;;;;6.11;100.00;96717.84;5042876;28;20499;-71
2022/01/02 05:45:30;;;;;;;21.48;8.77;;;;;;;6.10;100.00;96725.00;5024002;28;20057;-71
2022/01/02 05:47:56;;;;;;;20.67;9.23;;;;;;;6.12;100.00;96724.78;5003660;28;20077;-71
2022/01/02 05:50:22;;;;;;;26.90;9.48;;;;;;;6.13;100.00;96724.56;5019157;28;20058;-71
2022/01/02 05:52:48;;;;;;;24.58;9.00;;;;;;;6.11;100.00;96720.50;5004333;28;20049;-71
2022/01/02 05:55:16;;;;;;;21.67;8.90;;;;;;;6.08;100.00;96700.47;5005603;28;20558;-72
2022/01/02 05:57:43;;;;;;;20.95;8.50;;;;;;;6.07;100.00;96690.88;5007537;28;20409;-71
2022/01/02 06:00:09;;;;;;;19.23;8.77;;;;;;;6.10;100.00;96692.28;5004143;28;20125;-70
2022/01/02 06:02:45;;;;;;;20.48;8.73;;;;;;;6.06;100.00;96702.53;5005056;28;20473;-72
2022/01/02 06:05:12;;;;;;;21.98;9.18;;;;;;;6.00;100.00;96703.41;5019875;28;20048;-70
2022/01/02 06:07:38;;;;;;;20.40;9.00;;;;;;;6.08;100.00;96702.34;5018095;28;20037;-70
2022/01/02 06:10:07;;;;;;;23.40;8.95;;;;;;;6.18;100.00;96700.00;5017435;28;20058;-71
2022/01/02 06:12:34;;;;;;;24.58;9.05;;;;;;;6.17;100.00;96693.06;5006488;28;20037;-71
2022/01/02 06:14:59;;;;;;;19.83;8.98;;;;;;;6.17;100.00;96690.41;5002692;28;20392;-70
2022/01/02 06:17:26;;;;;;;19.63;8.50;;;;;;;6.17;100.00;96697.56;5008485;28;20041;-70
2022/01/02 06:19:51;;;;;;;20.38;9.02;;;;;;;6.12;100.00;96688.38;5019156;28;20107;-70
2022/01/02 06:22:17;;;;;;;18.15;8.52;;;;;;;6.06;100.00;96683.09;5003831;28;20060;-71
2022/01/02 06:24:43;;;;;;;18.02;8.80;;;;;;;6.06;100.00;96678.59;5003512;28;20030;-70
2022/01/02 06:27:09;;;;;;;20.55;8.73;;;;;;;6.03;100.00;96688.88;5002002;28;20034;-70
2022/01/02 06:29:34;;;;;;;22.48;9.35;;;;;;;5.99;100.00;96683.19;5017682;28;20038;-72
2022/01/02 06:32:02;;;;;;;22.17;8.52;;;;;;;6.04;100.00;96669.22;5017376;28;20068;-71
2022/01/02 06:34:31;;;;;;;16.08;7.82;;;;;;;6.02;100.00;96673.97;5019085;28;20384;-71
2022/01/02 06:36:57;;;;;;;19.10;7.10;;;;;;;5.94;100.00;96666.25;5016831;28;20117;-71
2022/01/02 06:39:23;;;;;;;17.45;8.30;;;;;;;5.91;100.00;96661.34;5017575;28;20462;-72
2022/01/02 06:41:51;;;;;;;21.70;8.27;;;;;;;5.87;100.00;96648.47;5019617;28;20030;-70
2022/01/02 06:44:17;;;;;;;16.55;7.40;;;;;;;5.91;100.00;96656.03;5024481;28;20087;-70
2022/01/02 06:46:44;;;;;;;16.88;7.82;;;;;;;5.94;100.00;96661.75;5022206;28;20033;-72
2022/01/02 06:49:10;;;;;;;18.80;8.45;;;;;;;5.97;100.00;96652.53;5037145;28;20029;-72
2022/01/02 06:51:35;;;;;;;22.17;9.07;;;;;;;5.98;100.00;96657.63;5024674;28;20029;-70
2022/01/02 06:54:01;;;;;;;18.50;8.43;;;;;;;6.00;100.00;96646.81;5022242;28;20072;-71
2022/01/02 06:56:27;;;;;;;18.40;8.35;;;;;;;6.00;100.00;96639.66;5021158;28;20021;-70
2022/01/02 06:58:53;;;;;;;16.40;7.53;;;;;;;5.99;100.00;96645.16;5036527;28;20175;-70
2022/01/02 07:01:19;;;;;;;28.20;12.40;;;;;;;5.93;100.00;96628.25;5038231;28;20571;-71
2022/01/02 07:03:45;;;;;;;15.75;7.95;;;;;;;5.88;100.00;96636.81;5037539;28;20459;-71
2022/01/02 07:06:10;;;;;;;19.23;9.02;;;;;;;5.92;100.00;96631.13;5021924;28;20053;-70
2022/01/02 07:08:36;;;;;;;21.13;8.38;;;;;;;5.85;100.00;96629.28;5038339;28;20373;-70
2022/01/02 07:11:02;;;;;;;13.20;5.93;;;;;;;5.82;100.00;96627.03;5020291;28;20485;-70
2022/01/02 07:13:27;;;;;;;13.55;6.63;;;;;;;5.78;100.00;96620.53;5023212;28;20045;-72
2022/01/02 07:15:52;;;;;;;13.48;6.63;;;;;;;5.78;100.00;96628.50;5021679;28;20507;-71
2022/01/02 07:18:18;;;;;;;14.32;6.53;;;;;;;5.81;100.00;96625.41;5021665;28;20061;-70
2022/01/02 07:20:43;;;;;;;14.07;7.55;;;;;;;5.84;100.00;96625.00;5023164;28;20045;-71
2022/01/02 07:23:09;;;;;;;19.13;7.45;;;;;;;5.88;100.00;96614.75;5022603;28;20040;-73
2022/01/02 07:25:34;;;;;;;19.90;7.63;;;;;;;5.94;100.00;96607.81;5021748;28;20092;-71
2022/01/02 07:28:00;;;;;;;15.77;8.23;;;;;;;6.02;100.00;96603.03;5022847;28;20072;-71
2022/01/02 07:30:25;;;;;;;15.50;6.47;;;;;;;6.04;100.00;96603.63;5023710;28;20097;-70
2022/01/02 07:32:51;;;;;;;14.55;6.63;;;;;;;6.11;100.00;96608.91;5023105;28;20472;-71
2022/01/02 07:35:17;;;;;;;13.55;6.88;;;;;;;6.15;100.00;96615.41;5022089;28;20036;-72
2022/01/02 07:37:42;;;;;;;15.43;7.68;;;;;;;6.21;100.00;96624.34;5025489;28;20048;-71
2022/01/02 07:40:09;;;;;;;14.13;6.95;;;;;;;6.20;100.00;96625.38;5026700;28;20300;-71
2022/01/02 07:42:35;;;;;;;12.20;6.78;;;;;;;6.29;100.00;96632.06;5027932;28;20618;-71
2022/01/02 07:45:07;;;;;;;11.95;5.05;;;;;;;6.11;100.00;96615.03;5021401;28;20072;-71
2022/01/02 07:47:32;;;;;;;15.38;7.57;;;;;;;6.05;100.00;96617.72;5027427;28;20139;-70
2022/01/02 07:49:58;;;;;;;14.95;6.10;;;;;;;6.11;100.00;96620.34;5026677;28;20068;-72
2022/01/02 07:52:23;;;;;;;20.63;7.00;;;;;;;6.16;100.00;96622.34;5027221;28;20033;-71
2022/01/02 07:54:49;;;;;;;11.80;5.43;;;;;;;6.14;100.00;96632.38;5027335;28;20160;-72
2022/01/02 07:57:14;;;;;;;14.57;5.47;;;;;;;6.18;100.00;96624.78;5026570;28;20067;-71
2022/01/02 07:59:40;;;;;;;10.10;5.65;;;;;;;6.10;100.00;96620.56;5027744;28;20360;-70
2022/01/02 08:02:08;;;;;;;11.50;4.35;;;;;;;6.11;100.00;96609.72;5026989;28;20080;-70
2022/01/02 08:04:33;;;;;;;10.60;4.45;;;;;;;6.09;100.00;96613.63;5027326;28;20374;-70
2022/01/02 08:06:59;;;;;;;11.32;5.53;;;;;;;6.06;100.00;96606.06;5026773;28;20038;-70
2022/01/02 08:09:25;;;;;;;10.63;4.47;;;;;;;6.05;100.00;96609.75;5027198;28;20029;-70
2022/01/02 08:11:50;;;;;;;10.05;5.38;;;;;;;6.02;100.00;96594.25;5025932;28;20044;-71
2022/01/02 08:14:16;;;;;;;11.73;6.47;;;;;;;5.99;100.00;96600.81;5027660;28;20372;-70
2022/01/02 08:16:42;;;;;;;13.07;6.28;;;;;;;5.97;100.00;96594.09;5027544;28;20040;-70
2022/01/02 08:19:08;;;;;;;11.35;5.13;;;;;;;5.93;100.00;96584.94;5027254;28;20056;-70
2022/01/02 08:21:34;;;;;;;14.40;5.38;;;;;;;5.92;100.00;96578.81;5029034;28;20030;-71
2022/01/02 08:23:59;;;;;;;10.57;4.88;;;;;;;5.91;100.00;96577.16;5026789;28;20041;-72
2022/01/02 08:26:25;;;;;;;8.52;3.92;;;;;;;5.88;100.00;96573.06;5024550;28;20045;-71
2022/01/02 08:28:51;;;;;;;11.05;4.95;;;;;;;5.86;100.00;96569.00;5027344;28;20037;-71
2022/01/02 08:31:17;;;;;;;11.95;5.32;;;;;;;5.87;100.00;96554.69;5023350;28;20080;-71
2022/01/02 08:33:42;;;;;;;12.02;4.53;;;;;;;5.83;100.00;96562.28;5027788;28;20064;-71
2022/01/02 08:36:08;;;;;;;13.65;4.78;;;;;;;5.83;100.00;96551.66;5025204;28;20033;-70
2022/01/02 08:38:33;;;;;;;11.73;5.05;;;;;;;5.83;100.00;96551.66;5024310;28;20057;-72
2022/01/02 08:40:59;;;;;;;7.53;4.80;;;;;;;5.82;100.00;96549.22;5025707;28;20056;-71
2022/01/02 08:43:24;;;;;;;12.15;5.10;;;;;;;5.83;100.00;96543.69;5030990;28;20076;-71
2022/01/02 08:45:50;;;;;;;10.48;4.45;;;;;;;5.85;100.00;96546.16;5030989;28;20455;-70
2022/01/02 08:48:15;;;;;;;11.15;5.78;;;;;;;5.87;100.00;96534.25;5026453;28;20435;-71
2022/01/02 08:50:41;;;;;;;7.65;3.67;;;;;;;5.87;100.00;96522.81;5027665;28;20112;-71
2022/01/02 08:53:06;;;;;;;7.63;3.88;;;;;;;5.87;100.00;96515.66;5026009;28;20443;-71
2022/01/02 08:55:34;;;;;;;8.27;5.00;;;;;;;5.86;100.00;96508.75;5025665;28;20385;-70
2022/01/02 08:58:00;;;;;;;10.45;4.25;;;;;;;5.88;100.00;96493.38;5026134;28;20073;-70
2022/01/02 09:00:25;;;;;;;9.45;5.03;;;;;;;5.87;100.00;96478.50;5040165;28;20486;-70
2022/01/02 09:02:53;;;;;;;8.55;4.68;;;;;;;5.83;100.00;96474.63;5025653;28;20538;-72
2022/01/02 09:05:19;;;;;;;10.32;5.72;;;;;;;5.81;100.00;96492.63;5025394;28;20469;-71
2022/01/02 09:07:45;;;;;;;11.48;5.18;;;;;;;5.83;100.00;96505.69;5026339;28;20252;-71
2022/01/02 09:10:11;;;;;;;9.18;5.47;;;;;;;5.82;100.00;96496.09;5025526;28;20558;-71
2022/01/02 09:12:36;;;;;;;9.38;4.35;;;;;;;5.74;100.00;96483.91;5027886;28;20044;-70
2022/01/02 09:15:02;;;;;;;11.82;4.40;;;;;;;5.76;100.00;96495.16;5026790;28;20487;-70
2022/01/02 09:17:28;;;;;;;27.55;9.20;;;;;;;5.78;100.00;96479.00;5025063;28;20073;-71
2022/01/02 09:19:53;;;;;;;12.73;5.10;;;;;;;5.79;100.00;96476.13;5026406;28;20079;-70
2022/01/02 09:22:19;;;;;;;11.02;4.97;;;;;;;5.84;100.00;96470.16;5027420;28;20499;-71
2022/01/02 09:24:44;;;;;;;10.32;5.25;;;;;;;5.86;100.00;96481.38;5025376;28;20044;-70
2022/01/02 09:27:10;;;;;;;10.70;4.88;;;;;;;5.91;100.00;96492.16;5025564;28;20869;-70
2022/01/02 09:29:36;;;;;;;11.68;5.82;;;;;;;5.91;100.00;96478.88;5040660;28;20037;-70
2022/01/02 09:32:02;;;;;;;9.73;5.30;;;;;;;5.90;100.00;96471.91;5024705;28;20049;-70
2022/01/02 09:34:29;;;;;;;10.75;6.00;;;;;;;5.88;100.00;96488.09;5024709;28;20041;-71
2022/01/02 09:36:54;;;;;;;7.97;4.43;;;;;;;5.87;100.00;96499.75;5024168;28;20377;-70
2022/01/02 09:39:20;;;;;;;9.15;3.35;;;;;;;5.82;100.00;96490.78;5024800;28;20071;-72
2022/01/02 09:41:46;;;;;;;7.63;3.72;;;;;;;5.80;100.00;96474.28;5024453;28;20033;-72
2022/01/02 09:44:11;;;;;;;10.90;4.47;;;;;;;5.79;100.00;96470.00;5029337;28;20045;-71
2022/01/02 09:46:38;;;;;;;7.25;4.38;;;;;;;5.88;100.00;96461.53;5044652;28;20029;-70
2022/01/02 09:49:05;;;;;;;12.80;5.63;;;;;;;5.93;100.00;96460.09;5043418;28;20060;-72
2022/01/02 09:51:31;;;;;;;10.35;5.28;;;;;;;5.93;100.00;96471.53;5043071;28;20556;-71
2022/01/02 09:53:56;;;;;;;9.05;5.45;;;;;;;5.97;100.00;96531.16;5044860;28;20037;-71
2022/01/02 09:56:22;;;;;;;10.32;4.70;;;;;;;5.94;100.00;96509.53;5043431;28;20111;-72
2022/01/02 09:58:48;;;;;;;9.50;5.10;;;;;;;5.93;100.00;96516.69;5043951;28;20041;-71
2022/01/02 10:01:22;;;;;;;9.98;4.68;;;;;;;5.95;100.00;96517.28;5043522;28;20474;-71
2022/01/02 10:03:53;;;;;;;8.27;4.43;;;;;;;6.04;100.00;96504.53;5044799;28;20484;-71
2022/01/02 10:06:20;;;;;;;12.30;4.70;;;;;;;6.02;100.00;96494.13;5043440;28;20047;-71
2022/01/02 10:08:46;;;;;;;12.77;5.07;;;;;;;6.14;100.00;96502.97;5043370;28;20372;-70
2022/01/02 10:11:20;;;;;;;6.20;3.83;;;;;;;6.35;100.00;96482.34;5043009;28;20071;-71
2022/01/02 10:13:55;;;;;;;18.30;7.75;;;;;;;6.48;100.00;96476.09;5045149;28;20496;-72
2022/01/02 10:16:22;;;;;;;10.65;4.55;;;;;;;6.55;100.00;96463.53;5044728;28;20506;-71
2022/01/02 10:18:49;;;;;;;11.00;4.68;;;;;;;6.47;100.00;96454.00;5043903;28;20045;-71
2022/01/02 10:21:35;;;;;;;6.47;3.15;;;;;;;6.39;100.00;96436.50;5045056;28;20877;-71
2022/01/02 10:24:17;;;;;;;8.98;4.85;;;;;;;6.26;100.00;96449.13;5044618;28;20035;-70
2022/01/02 10:27:15;;;;;;;10.35;4.85;;;;;;;6.14;100.00;96425.13;5044038;28;20427;-71
2022/01/02 10:30:03;;;;;;;8.90;4.72;;;;;;;6.10;100.00;96421.31;5043133;28;20040;-71
2022/01/02 10:32:28;;;;;;;9.65;4.45;;;;;;;6.04;100.00;96412.34;5043960;28;20045;-71
2022/01/02 10:35:23;;;;;;;8.10;3.80;;;;;;;6.03;100.00;96420.56;5045755;28;20037;-70
2022/01/02 10:37:57;;;;;;;8.40;4.03;;;;;;;6.01;100.00;96433.25;5043510;28;20045;-72
2022/01/02 10:40:23;;;;;;;10.95;5.32;;;;;;;6.02;100.00;96466.75;5042749;28;20086;-71
2022/01/02 10:42:49;;;;;;;9.73;4.78;;;;;;;5.98;100.00;96438.97;5026494;28;20032;-71
2022/01/02 10:45:32;;;;;;;9.93;5.30;;;;;;;6.03;100.00;96444.47;5021091;28;20055;-71
2022/01/02 10:47:58;;;;;;;12.07;5.20;;;;;;;6.15;100.00;96429.44;5041695;28;20064;-70
2022/01/02 10:50:24;;;;;;;8.40;3.78;;;;;;;6.49;100.00;96429.84;5043298;28;20193;-70
2022/01/02 10:52:49;;;;;;;5.90;3.33;;;;;;;6.78;100.00;96449.53;5043806;28;20475;-70
2022/01/02 10:55:22;;;;;;;12.95;3.50;;;;;;;7.03;100.00;96428.13;5043484;28;20373;-71
2022/01/02 10:57:50;;;;;;;6.50;2.85;;;;;;;7.15;100.00;96407.66;5043586;28;20052;-71
2022/01/02 11:00:17;;;;;;;10.50;4.15;;;;;;;7.33;100.00;96404.94;5042014;28;20029;-71
2022/01/02 11:02:44;;;;;;;10.90;6.70;;;;;;;7.40;100.00;96400.34;5043377;28;20037;-71
2022/01/02 11:05:12;;;;;;;10.32;4.57;;;;;;;7.47;100.00;96402.84;5043494;28;20037;-71
2022/01/02 11:07:43;;;;;;;8.05;3.10;;;;;;;7.58;100.00;96399.41;5043860;28;20032;-71
2022/01/02 11:10:11;;;;;;;7.93;4.28;;;;;;;7.65;100.00;96370.00;5042204;28;20041;-72
2022/01/02 11:12:41;;;;;;;10.13;5.50;;;;;;;7.68;100.00;96375.66;5044143;28;20064;-73
2022/01/02 11:15:12;;;;;;;10.38;4.05;;;;;;;7.81;100.00;96379.97;5043613;28;20059;-71
2022/01/02 11:17:38;;;;;;;7.25;3.50;;;;;;;8.04;100.00;96371.13;5043725;28;20436;-70
2022/01/02 11:20:06;;;;;;;7.75;3.70;;;;;;;8.63;100.00;96355.78;5043198;28;20172;-71
2022/01/02 11:22:41;;;;;;;6.97;3.05;;;;;;;9.86;100.00;96358.63;5042670;28;20045;-72
2022/01/02 11:25:26;;;;;;;7.78;3.60;;;;;;;9.54;100.00;96359.22;5042483;28;20653;-71
2022/01/02 11:27:58;;;;;;;6.18;2.70;;;;;;;9.20;100.00;96353.91;5043663;28;20044;-71
2022/01/02 11:30:29;;;;;;;6.57;3.47;;;;;;;10.77;100.00;96369.69;5043605;28;20043;-72